sensor_id;sensor_type;location;lat;lon;timestamp;pressure;altitude;pressure_sealevel;temperature;humidity
28927;BME280;16038;47.692;9.400;2023-06-05T00:00:39;96577.25;;;16.18;51.89
28927;BME280;16038;47.692;9.400;2023-06-05T00:03:05;96570.16;;;16.17;51.91
28927;BME280;16038;47.692;9.400;2023-06-05T00:05:30;96575.38;;;16.08;52.14
28927;BME280;16038;47.692;9.400;2023-06-05T00:08:16;96567.50;;;16.03;52.60
28927;BME280;16038;47.692;9.400;2023-06-05T00:10:42;96570.31;;;15.96;52.77
28927;BME280;16038;47.692;9.400;2023-06-05T00:13:22;96571.13;;;15.93;52.89
28927;BME280;16038;47.692;9.400;2023-06-05T00:15:48;96575.91;;;15.89;53.43
28927;BME280;16038;47.692;9.400;2023-06-05T00:18:14;96574.31;;;15.88;53.18
28927;BME280;16038;47.692;9.400;2023-06-05T00:20:39;96566.03;;;15.88;52.88
28927;BME280;16038;47.692;9.400;2023-06-05T00:23:05;96571.94;;;15.86;53.12
28927;BME280;16038;47.692;9.400;2023-06-05T00:25:31;96573.16;;;15.85;53.08
28927;BME280;16038;47.692;9.400;2023-06-05T00:27:56;96567.22;;;15.86;52.99
28927;BME280;16038;47.692;9.400;2023-06-05T00:30:21;96560.56;;;15.80;53.22
28927;BME280;16038;47.692;9.400;2023-06-05T00:32:47;96562.47;;;15.91;52.83
28927;BME280;16038;47.692;9.400;2023-06-05T00:35:30;96559.78;;;15.80;53.30
28927;BME280;16038;47.692;9.400;2023-06-05T00:37:56;96559.78;;;15.80;53.04
28927;BME280;16038;47.692;9.400;2023-06-05T00:40:29;96555.06;;;15.77;53.26
28927;BME280;16038;47.692;9.400;2023-06-05T00:42:55;96556.25;;;15.76;53.35
28927;BME280;16038;47.692;9.400;2023-06-05T00:45:26;96560.19;;;15.75;53.08
28927;BME280;16038;47.692;9.400;2023-06-05T00:47:52;96560.19;;;15.75;52.95
28927;BME280;16038;47.692;9.400;2023-06-05T00:50:18;96556.66;;;15.74;53.33
28927;BME280;16038;47.692;9.400;2023-06-05T00:52:47;96554.28;;;15.69;53.60
28927;BME280;16038;47.692;9.400;2023-06-05T00:55:15;96556.66;;;15.74;53.08
28927;BME280;16038;47.692;9.400;2023-06-05T00:57:40;96559.00;;;15.72;53.31
28927;BME280;16038;47.692;9.400;2023-06-05T01:00:07;96556.31;;;15.61;54.02
28927;BME280;16038;47.692;9.400;2023-06-05T01:02:35;96560.66;;;15.55;54.32
28927;BME280;16038;47.692;9.400;2023-06-05T01:05:03;96565.06;;;15.49;54.75
28927;BME280;16038;47.692;9.400;2023-06-05T01:07:31;96559.94;;;15.44;54.92
28927;BME280;16038;47.692;9.400;2023-06-05T01:10:00;96570.25;;;15.36;55.47
28927;BME280;16038;47.692;9.400;2023-06-05T01:12:31;96559.25;;;15.25;56.17
28927;BME280;16038;47.692;9.400;2023-06-05T01:15:01;96564.78;;;15.25;55.76
28927;BME280;16038;47.692;9.400;2023-06-05T01:17:27;96563.97;;;15.25;55.86
28927;BME280;16038;47.692;9.400;2023-06-05T01:19:56;96561.19;;;15.25;55.99
28927;BME280;16038;47.692;9.400;2023-06-05T01:22:25;96559.28;;;15.22;56.65
28927;BME280;16038;47.692;9.400;2023-06-05T01:24:51;96558.09;;;15.16;56.68
28927;BME280;16038;47.692;9.400;2023-06-05T01:30:18;96555.34;;;15.12;56.63
28927;BME280;16038;47.692;9.400;2023-06-05T01:32:53;96559.31;;;15.11;56.78
28927;BME280;16038;47.692;9.400;2023-06-05T01:35:21;96560.09;;;15.08;57.20
28927;BME280;16038;47.692;9.400;2023-06-05T01:37:53;96560.91;;;14.98;57.67
28927;BME280;16038;47.692;9.400;2023-06-05T01:40:22;96555.41;;;14.94;58.08
28927;BME280;16038;47.692;9.400;2023-06-05T01:42:50;96556.63;;;14.89;58.49
28927;BME280;16038;47.692;9.400;2023-06-05T01:45:17;96565.31;;;14.81;59.36
28927;BME280;16038;47.692;9.400;2023-06-05T01:47:43;96559.81;;;14.74;60.30
28927;BME280;16038;47.692;9.400;2023-06-05T01:50:10;96549.56;;;14.70;61.31
28927;BME280;16038;47.692;9.400;2023-06-05T01:52:39;96555.09;;;14.70;61.69
28927;BME280;16038;47.692;9.400;2023-06-05T01:55:08;96551.94;;;14.68;62.95
28927;BME280;16038;47.692;9.400;2023-06-05T01:57:40;96555.09;;;14.60;62.93
28927;BME280;16038;47.692;9.400;2023-06-05T02:00:06;96561.38;;;14.49;65.27
28927;BME280;16038;47.692;9.400;2023-06-05T02:02:36;96559.03;;;14.48;65.33
28927;BME280;16038;47.692;9.400;2023-06-05T02:05:02;96556.31;;;14.59;64.83
28927;BME280;16038;47.692;9.400;2023-06-05T02:07:28;96558.22;;;14.54;64.95
28927;BME280;16038;47.692;9.400;2023-06-05T02:09:53;96561.00;;;14.37;65.16
28927;BME280;16038;47.692;9.400;2023-06-05T02:12:19;96558.25;;;14.19;66.39
28927;BME280;16038;47.692;9.400;2023-06-05T02:14:44;96561.81;;;14.01;69.14
28927;BME280;16038;47.692;9.400;2023-06-05T02:17:10;96560.59;;;13.84;70.16
28927;BME280;16038;47.692;9.400;2023-06-05T02:19:38;96559.03;;;13.72;70.32
28927;BME280;16038;47.692;9.400;2023-06-05T02:22:04;96559.41;;;13.64;70.78
28927;BME280;16038;47.692;9.400;2023-06-05T02:24:29;96564.13;;;13.67;71.66
28927;BME280;16038;47.692;9.400;2023-06-05T02:26:55;96570.41;;;13.71;71.24
28927;BME280;16038;47.692;9.400;2023-06-05T02:29:20;96564.53;;;13.69;71.36
28927;BME280;16038;47.692;9.400;2023-06-05T02:31:46;96558.59;;;13.56;70.97
28927;BME280;16038;47.692;9.400;2023-06-05T02:34:11;96566.44;;;13.57;71.75
28927;BME280;16038;47.692;9.400;2023-06-05T02:36:37;96560.19;;;13.71;71.55
28927;BME280;16038;47.692;9.400;2023-06-05T02:39:02;96553.13;;;13.70;72.04
28927;BME280;16038;47.692;9.400;2023-06-05T02:41:30;96557.44;;;13.68;72.37
28927;BME280;16038;47.692;9.400;2023-06-05T02:43:56;96559.34;;;13.42;73.70
28927;BME280;16038;47.692;9.400;2023-06-05T02:46:21;96563.53;;;13.18;74.34
28927;BME280;16038;47.692;9.400;2023-06-05T02:48:49;96560.00;;;13.14;75.86
28927;BME280;16038;47.692;9.400;2023-06-05T02:51:15;96566.22;;;12.96;76.86
28927;BME280;16038;47.692;9.400;2023-06-05T02:53:41;96568.44;;;12.73;77.17
28927;BME280;16038;47.692;9.400;2023-06-05T02:56:06;96567.66;;;12.72;78.77
28927;BME280;16038;47.692;9.400;2023-06-05T02:58:31;96564.91;;;12.72;78.67
28927;BME280;16038;47.692;9.400;2023-06-05T03:01:00;96570.31;;;12.58;79.50
28927;BME280;16038;47.692;9.400;2023-06-05T03:03:31;96565.16;;;12.53;80.55
28927;BME280;16038;47.692;9.400;2023-06-05T03:05:58;96558.41;;;12.39;80.85
28927;BME280;16038;47.692;9.400;2023-06-05T03:08:32;96557.22;;;12.40;82.27
28927;BME280;16038;47.692;9.400;2023-06-05T03:10:59;96563.16;;;12.42;80.99
28927;BME280;16038;47.692;9.400;2023-06-05T03:13:25;96560.03;;;12.48;80.96
28927;BME280;16038;47.692;9.400;2023-06-05T03:15:50;96558.91;;;12.52;81.71
28927;BME280;16038;47.692;9.400;2023-06-05T03:18:19;96555.38;;;12.52;80.96
28927;BME280;16038;47.692;9.400;2023-06-05T03:20:47;96561.25;;;12.50;81.79
28927;BME280;16038;47.692;9.400;2023-06-05T03:23:13;96566.50;;;12.73;80.82
28927;BME280;16038;47.692;9.400;2023-06-05T03:25:38;96564.88;;;12.69;80.58
28927;BME280;16038;47.692;9.400;2023-06-05T03:28:03;96566.91;;;12.79;81.42
28927;BME280;16038;47.692;9.400;2023-06-05T03:30:29;96564.91;;;12.76;81.92
28927;BME280;16038;47.692;9.400;2023-06-05T03:32:55;96562.13;;;12.69;81.67
28927;BME280;16038;47.692;9.400;2023-06-05T03:35:20;96561.34;;;12.65;81.93
28927;BME280;16038;47.692;9.400;2023-06-05T03:37:45;96566.69;;;12.43;83.76
28927;BME280;16038;47.692;9.400;2023-06-05T03:40:11;96569.72;;;12.27;84.23
28927;BME280;16038;47.692;9.400;2023-06-05T03:42:37;96568.47;;;12.17;84.88
28927;BME280;16038;47.692;9.400;2023-06-05T03:45:03;96569.28;;;12.21;85.76
28927;BME280;16038;47.692;9.400;2023-06-05T03:47:28;96576.69;;;12.17;84.68
28927;BME280;16038;47.692;9.400;2023-06-05T03:49:54;96573.22;;;12.28;86.44
28927;BME280;16038;47.692;9.400;2023-06-05T03:52:21;96578.06;;;12.41;85.93
28927;BME280;16038;47.692;9.400;2023-06-05T03:54:48;96573.38;;;12.46;84.09
28927;BME280;16038;47.692;9.400;2023-06-05T03:57:16;96576.84;;;12.35;85.41
28927;BME280;16038;47.692;9.400;2023-06-05T03:59:42;96590.72;;;12.57;85.32
28927;BME280;16038;47.692;9.400;2023-06-05T04:02:07;96583.38;;;12.75;84.84
28927;BME280;16038;47.692;9.400;2023-06-05T04:04:33;96581.81;;;12.78;83.99
28927;BME280;16038;47.692;9.400;2023-06-05T04:06:58;96579.97;;;12.96;84.15
28927;BME280;16038;47.692;9.400;2023-06-05T04:09:23;96583.88;;;12.95;83.58
28927;BME280;16038;47.692;9.400;2023-06-05T04:11:49;96583.91;;;13.03;84.49
28927;BME280;16038;47.692;9.400;2023-06-05T04:14:15;96586.69;;;13.06;83.22
28927;BME280;16038;47.692;9.400;2023-06-05T04:16:41;96591.44;;;13.16;83.45
28927;BME280;16038;47.692;9.400;2023-06-05T04:19:10;96593.34;;;13.05;83.35
28927;BME280;16038;47.692;9.400;2023-06-05T04:21:37;96596.97;;;13.20;83.13
28927;BME280;16038;47.692;9.400;2023-06-05T04:24:06;96594.31;;;13.34;82.90
28927;BME280;16038;47.692;9.400;2023-06-05T04:26:34;96600.59;;;13.42;82.55
28927;BME280;16038;47.692;9.400;2023-06-05T04:29:00;96598.72;;;13.64;81.75
28927;BME280;16038;47.692;9.400;2023-06-05T04:31:27;96602.72;;;13.88;79.60
28927;BME280;16038;47.692;9.400;2023-06-05T04:33:53;96597.59;;;14.01;78.08
28927;BME280;16038;47.692;9.400;2023-06-05T04:36:18;96595.25;;;14.03;78.17
28927;BME280;16038;47.692;9.400;2023-06-05T04:38:44;96594.47;;;14.21;77.01
28927;BME280;16038;47.692;9.400;2023-06-05T04:41:10;96592.13;;;14.30;77.11
28927;BME280;16038;47.692;9.400;2023-06-05T04:43:36;96599.56;;;14.40;78.01
28927;BME280;16038;47.692;9.400;2023-06-05T04:46:02;96598.41;;;14.30;77.69
28927;BME280;16038;47.692;9.400;2023-06-05T04:48:28;96602.34;;;14.26;77.97
28927;BME280;16038;47.692;9.400;2023-06-05T04:50:53;96605.09;;;14.22;78.45
28927;BME280;16038;47.692;9.400;2023-06-05T04:53:21;96604.69;;;14.02;79.81
28927;BME280;16038;47.692;9.400;2023-06-05T04:55:47;96603.88;;;13.98;80.92
28927;BME280;16038;47.692;9.400;2023-06-05T04:58:13;96602.72;;;14.06;80.96
28927;BME280;16038;47.692;9.400;2023-06-05T05:00:38;96605.50;;;14.42;78.81
28927;BME280;16038;47.692;9.400;2023-06-05T05:03:05;96602.34;;;14.69;77.13
28927;BME280;16038;47.692;9.400;2023-06-05T05:05:30;96588.53;;;14.87;76.28
28927;BME280;16038;47.692;9.400;2023-06-05T05:07:55;96593.22;;;14.97;77.57
28927;BME280;16038;47.692;9.400;2023-06-05T05:10:21;96594.75;;;15.16;76.86
28927;BME280;16038;47.692;9.400;2023-06-05T05:12:46;96593.63;;;14.99;76.84
28927;BME280;16038;47.692;9.400;2023-06-05T05:15:12;96597.13;;;15.07;77.42
28927;BME280;16038;47.692;9.400;2023-06-05T05:17:37;96599.91;;;15.00;77.41
28927;BME280;16038;47.692;9.400;2023-06-05T05:20:03;96592.56;;;15.67;75.16
28927;BME280;16038;47.692;9.400;2023-06-05T05:22:29;96601.22;;;17.19;66.84
28927;BME280;16038;47.692;9.400;2023-06-05T05:24:54;96605.78;;;18.49;61.11
28927;BME280;16038;47.692;9.400;2023-06-05T05:27:20;96599.00;;;20.34;53.98
28927;BME280;16038;47.692;9.400;2023-06-05T05:29:45;96602.50;;;21.46;48.33
28927;BME280;16038;47.692;9.400;2023-06-05T05:32:11;96604.25;;;21.82;48.22
28927;BME280;16038;47.692;9.400;2023-06-05T05:34:36;96610.09;;;23.12;43.53
28927;BME280;16038;47.692;9.400;2023-06-05T05:37:02;96612.41;;;24.02;40.18
28927;BME280;16038;47.692;9.400;2023-06-05T05:39:28;96612.00;;;23.81;40.20
28927;BME280;16038;47.692;9.400;2023-06-05T05:41:54;96617.94;;;25.42;36.96
28927;BME280;16038;47.692;9.400;2023-06-05T05:44:20;96617.13;;;25.60;36.11
28927;BME280;16038;47.692;9.400;2023-06-05T05:46:46;96618.53;;;25.65;34.15
28927;BME280;16038;47.692;9.400;2023-06-05T05:49:12;96617.81;;;26.16;33.25
28927;BME280;16038;47.692;9.400;2023-06-05T05:51:38;96616.72;;;27.68;32.05
28927;BME280;16038;47.692;9.400;2023-06-05T05:54:04;96626.94;;;28.25;30.32
28927;BME280;16038;47.692;9.400;2023-06-05T05:56:30;96624.59;;;27.24;31.16
28927;BME280;16038;47.692;9.400;2023-06-05T05:58:55;96621.72;;;26.52;32.83
28927;BME280;16038;47.692;9.400;2023-06-05T06:01:20;96624.09;;;24.82;35.44
28927;BME280;16038;47.692;9.400;2023-06-05T06:03:47;96622.88;;;27.27;31.90
28927;BME280;16038;47.692;9.400;2023-06-05T06:06:12;96622.59;;;28.24;29.88
28927;BME280;16038;47.692;9.400;2023-06-05T06:08:38;96633.56;;;28.72;29.28
28927;BME280;16038;47.692;9.400;2023-06-05T06:11:03;96629.88;;;29.42;28.29
28927;BME280;16038;47.692;9.400;2023-06-05T06:13:32;96633.78;;;25.17;33.40
28927;BME280;16038;47.692;9.400;2023-06-05T06:15:59;96628.25;;;23.74;36.42
28927;BME280;16038;47.692;9.400;2023-06-05T06:18:24;96638.13;;;24.50;35.54
28927;BME280;16038;47.692;9.400;2023-06-05T06:20:50;96632.25;;;24.17;36.26
28927;BME280;16038;47.692;9.400;2023-06-05T06:23:16;96629.88;;;22.44;39.20
28927;BME280;16038;47.692;9.400;2023-06-05T06:25:41;96625.53;;;24.46;37.14
28927;BME280;16038;47.692;9.400;2023-06-05T06:28:07;96624.19;;;20.43;43.41
28927;BME280;16038;47.692;9.400;2023-06-05T06:30:32;96623.59;;;20.52;44.29
28927;BME280;16038;47.692;9.400;2023-06-05T06:32:57;96622.56;;;20.78;44.75
28927;BME280;16038;47.692;9.400;2023-06-05T06:35:24;96620.72;;;20.55;44.56
28927;BME280;16038;47.692;9.400;2023-06-05T06:37:53;96617.03;;;21.37;44.29
28927;BME280;16038;47.692;9.400;2023-06-05T06:40:18;96628.72;;;20.20;46.00
28927;BME280;16038;47.692;9.400;2023-06-05T06:42:44;96627.19;;;21.73;43.58
28927;BME280;16038;47.692;9.400;2023-06-05T06:45:10;96626.94;;;22.22;42.63
28927;BME280;16038;47.692;9.400;2023-06-05T06:47:35;96634.53;;;20.59;44.93
28927;BME280;16038;47.692;9.400;2023-06-05T06:50:01;96625.09;;;20.89;45.13
28927;BME280;16038;47.692;9.400;2023-06-05T06:54:52;96631.78;;;22.35;42.06
28927;BME280;16038;47.692;9.400;2023-06-05T06:57:17;96631.50;;;20.86;44.35
28927;BME280;16038;47.692;9.400;2023-06-05T06:59:43;96632.25;;;20.21;45.86
28927;BME280;16038;47.692;9.400;2023-06-05T07:02:17;96632.41;;;19.57;47.58
28927;BME280;16038;47.692;9.400;2023-06-05T07:04:44;96636.19;;;19.87;48.62
28927;BME280;16038;47.692;9.400;2023-06-05T07:07:11;96634.31;;;21.15;45.91
28927;BME280;16038;47.692;9.400;2023-06-05T07:09:43;96640.22;;;23.17;41.57
28927;BME280;16038;47.692;9.400;2023-06-05T07:12:12;96634.50;;;21.96;42.89
28927;BME280;16038;47.692;9.400;2023-06-05T07:14:39;96633.66;;;19.73;48.39
28927;BME280;16038;47.692;9.400;2023-06-05T07:17:04;96638.41;;;19.56;49.69
28927;BME280;16038;47.692;9.400;2023-06-05T07:19:31;96631.41;;;22.45;43.40
28927;BME280;16038;47.692;9.400;2023-06-05T07:21:57;96631.94;;;23.26;40.22
28927;BME280;16038;47.692;9.400;2023-06-05T07:24:24;96629.09;;;24.46;38.38
28927;BME280;16038;47.692;9.400;2023-06-05T07:26:54;96629.19;;;21.14;44.25
28927;BME280;16038;47.692;9.400;2023-06-05T07:29:23;96628.22;;;23.29;41.81
28927;BME280;16038;47.692;9.400;2023-06-05T07:31:50;96619.97;;;24.55;38.36
28927;BME280;16038;47.692;9.400;2023-06-05T07:34:17;96620.13;;;23.89;40.18
28927;BME280;16038;47.692;9.400;2023-06-05T07:36:45;96617.81;;;22.95;41.52
28927;BME280;16038;47.692;9.400;2023-06-05T07:39:11;96614.56;;;20.48;46.47
28927;BME280;16038;47.692;9.400;2023-06-05T07:41:37;96613.22;;;23.14;42.83
28927;BME280;16038;47.692;9.400;2023-06-05T07:44:03;96610.44;;;22.28;44.56
28927;BME280;16038;47.692;9.400;2023-06-05T07:46:28;96616.59;;;21.68;45.34
28927;BME280;16038;47.692;9.400;2023-06-05T07:48:54;96620.47;;;23.46;41.55
28927;BME280;16038;47.692;9.400;2023-06-05T07:51:19;96615.72;;;23.34;42.38
28927;BME280;16038;47.692;9.400;2023-06-05T07:53:45;96621.59;;;22.53;43.87
28927;BME280;16038;47.692;9.400;2023-06-05T07:56:11;96619.44;;;22.58;44.55
28927;BME280;16038;47.692;9.400;2023-06-05T07:58:41;96607.38;;;21.84;45.00
28927;BME280;16038;47.692;9.400;2023-06-05T08:01:08;96610.53;;;22.24;44.66
28927;BME280;16038;47.692;9.400;2023-06-05T08:03:33;96613.22;;;25.02;40.73
28927;BME280;16038;47.692;9.400;2023-06-05T08:05:59;96605.84;;;26.06;38.02
28927;BME280;16038;47.692;9.400;2023-06-05T08:08:24;96614.91;;;26.77;36.97
28927;BME280;16038;47.692;9.400;2023-06-05T08:10:50;96610.69;;;24.67;39.59
28927;BME280;16038;47.692;9.400;2023-06-05T08:13:16;96609.59;;;23.26;44.28
28927;BME280;16038;47.692;9.400;2023-06-05T08:15:42;96614.50;;;22.87;44.76
28927;BME280;16038;47.692;9.400;2023-06-05T08:18:08;96608.22;;;23.75;43.68
28927;BME280;16038;47.692;9.400;2023-06-05T08:20:33;96608.13;;;24.10;42.18
28927;BME280;16038;47.692;9.400;2023-06-05T08:22:59;96600.63;;;22.97;45.06
28927;BME280;16038;47.692;9.400;2023-06-05T08:25:26;96603.47;;;23.19;44.61
28927;BME280;16038;47.692;9.400;2023-06-05T08:27:52;96600.78;;;21.65;49.14
28927;BME280;16038;47.692;9.400;2023-06-05T08:30:18;96601.00;;;21.70;50.47
28927;BME280;16038;47.692;9.400;2023-06-05T08:32:43;96598.75;;;22.33;49.19
28927;BME280;16038;47.692;9.400;2023-06-05T08:35:09;96599.41;;;21.27;51.76
28927;BME280;16038;47.692;9.400;2023-06-05T08:37:36;96591.13;;;21.95;50.96
28927;BME280;16038;47.692;9.400;2023-06-05T08:40:02;96598.69;;;22.59;48.83
28927;BME280;16038;47.692;9.400;2023-06-05T08:42:31;96596.84;;;22.78;48.50
28927;BME280;16038;47.692;9.400;2023-06-05T08:44:57;96584.72;;;21.82;51.71
28927;BME280;16038;47.692;9.400;2023-06-05T08:47:23;96595.44;;;20.66;54.07
28927;BME280;16038;47.692;9.400;2023-06-05T08:49:52;96589.69;;;20.57;55.37
28927;BME280;16038;47.692;9.400;2023-06-05T08:52:19;96586.31;;;20.49;55.42
28927;BME280;16038;47.692;9.400;2023-06-05T08:54:45;96588.38;;;21.53;53.51
28927;BME280;16038;47.692;9.400;2023-06-05T08:57:10;96586.28;;;22.60;50.15
28927;BME280;16038;47.692;9.400;2023-06-05T08:59:36;96593.03;;;22.24;51.07
28927;BME280;16038;47.692;9.400;2023-06-05T09:02:02;96596.13;;;23.12;49.76
28927;BME280;16038;47.692;9.400;2023-06-05T09:04:27;96578.28;;;22.23;50.45
28927;BME280;16038;47.692;9.400;2023-06-05T09:07:04;96584.22;;;22.86;50.25
28927;BME280;16038;47.692;9.400;2023-06-05T09:09:33;96571.59;;;21.40;54.09
28927;BME280;16038;47.692;9.400;2023-06-05T09:12:03;96586.44;;;22.43;51.67
28927;BME280;16038;47.692;9.400;2023-06-05T09:14:29;96575.38;;;21.88;54.04
28927;BME280;16038;47.692;9.400;2023-06-05T09:16:56;96577.56;;;21.68;53.85
28927;BME280;16038;47.692;9.400;2023-06-05T09:19:22;96574.50;;;22.43;51.58
28927;BME280;16038;47.692;9.400;2023-06-05T09:21:53;96576.59;;;22.51;51.61
28927;BME280;16038;47.692;9.400;2023-06-05T09:24:20;96577.50;;;22.48;52.63
28927;BME280;16038;47.692;9.400;2023-06-05T09:27:00;96575.84;;;22.51;51.69
28927;BME280;16038;47.692;9.400;2023-06-05T09:29:30;96572.41;;;21.53;53.77
28927;BME280;16038;47.692;9.400;2023-06-05T09:32:00;96567.31;;;22.67;52.21
28927;BME280;16038;47.692;9.400;2023-06-05T09:34:37;96563.53;;;22.96;49.61
28927;BME280;16038;47.692;9.400;2023-06-05T09:37:07;96556.81;;;24.54;46.42
28927;BME280;16038;47.692;9.400;2023-06-05T09:39:35;96563.59;;;23.94;48.34
28927;BME280;16038;47.692;9.400;2023-06-05T09:42:01;96556.88;;;25.37;45.83
28927;BME280;16038;47.692;9.400;2023-06-05T09:44:27;96558.91;;;23.59;47.55
28927;BME280;16038;47.692;9.400;2023-06-05T09:52:00;96548.16;;;24.79;45.81
28927;BME280;16038;47.692;9.400;2023-06-05T09:54:28;96555.75;;;26.14;44.49
28927;BME280;16038;47.692;9.400;2023-06-05T09:57:00;96546.38;;;27.38;40.92
28927;BME280;16038;47.692;9.400;2023-06-05T09:59:28;96541.66;;;25.99;42.83
28927;BME280;16038;47.692;9.400;2023-06-05T10:01:56;96544.03;;;23.94;47.28
28927;BME280;16038;47.692;9.400;2023-06-05T10:04:23;96538.03;;;24.91;46.15
28927;BME280;16038;47.692;9.400;2023-06-05T10:06:51;96535.00;;;24.39;48.49
28927;BME280;16038;47.692;9.400;2023-06-05T10:09:18;96541.94;;;25.22;45.07
28927;BME280;16038;47.692;9.400;2023-06-05T10:11:48;96538.25;;;25.76;44.49
28927;BME280;16038;47.692;9.400;2023-06-05T10:14:14;96537.56;;;25.48;44.34
28927;BME280;16038;47.692;9.400;2023-06-05T10:16:41;96544.09;;;24.99;45.02
28927;BME280;16038;47.692;9.400;2023-06-05T10:19:08;96536.09;;;25.62;43.19
28927;BME280;16038;47.692;9.400;2023-06-05T10:21:34;96538.56;;;26.55;42.57
28927;BME280;16038;47.692;9.400;2023-06-05T10:24:11;96531.97;;;24.15;46.17
28927;BME280;16038;47.692;9.400;2023-06-05T10:26:48;96531.59;;;23.41;49.93
28927;BME280;16038;47.692;9.400;2023-06-05T10:32:05;96530.16;;;23.37;50.22
28927;BME280;16038;47.692;9.400;2023-06-05T10:37:35;96531.28;;;23.71;50.27
28927;BME280;16038;47.692;9.400;2023-06-05T10:40:03;96523.22;;;24.54;48.23
28927;BME280;16038;47.692;9.400;2023-06-05T10:42:30;96519.34;;;25.44;46.30
28927;BME280;16038;47.692;9.400;2023-06-05T10:44:55;96530.94;;;25.79;44.70
28927;BME280;16038;47.692;9.400;2023-06-05T10:50:19;96523.94;;;26.75;41.30
28927;BME280;16038;47.692;9.400;2023-06-05T10:52:52;96521.41;;;26.77;41.59
28927;BME280;16038;47.692;9.400;2023-06-05T10:55:20;96513.81;;;26.44;41.42
28927;BME280;16038;47.692;9.400;2023-06-05T10:58:02;96510.44;;;26.06;42.49
28927;BME280;16038;47.692;9.400;2023-06-05T11:00:28;96523.47;;;26.19;42.35
28927;BME280;16038;47.692;9.400;2023-06-05T11:02:54;96518.03;;;26.15;42.18
28927;BME280;16038;47.692;9.400;2023-06-05T11:05:20;96520.25;;;26.59;40.55
28927;BME280;16038;47.692;9.400;2023-06-05T11:07:46;96507.75;;;26.36;42.33
28927;BME280;16038;47.692;9.400;2023-06-05T11:10:18;96516.97;;;26.37;41.47
28927;BME280;16038;47.692;9.400;2023-06-05T11:15:13;96514.00;;;26.88;40.97
28927;BME280;16038;47.692;9.400;2023-06-05T11:17:41;96519.22;;;26.23;42.77
28927;BME280;16038;47.692;9.400;2023-06-05T11:20:08;96518.34;;;26.17;42.60
28927;BME280;16038;47.692;9.400;2023-06-05T11:27:49;96510.63;;;27.53;39.45
28927;BME280;16038;47.692;9.400;2023-06-05T11:30:22;96513.59;;;24.92;44.38
28927;BME280;16038;47.692;9.400;2023-06-05T11:32:49;96508.97;;;24.11;44.11
28927;BME280;16038;47.692;9.400;2023-06-05T11:35:25;96505.16;;;25.47;42.55
28927;BME280;16038;47.692;9.400;2023-06-05T11:40:34;96504.78;;;24.25;45.47
28927;BME280;16038;47.692;9.400;2023-06-05T11:43:19;96504.13;;;24.80;44.10
28927;BME280;16038;47.692;9.400;2023-06-05T11:46:03;96516.41;;;23.74;45.69
28927;BME280;16038;47.692;9.400;2023-06-05T11:48:29;96501.41;;;24.39;44.58
28927;BME280;16038;47.692;9.400;2023-06-05T11:50:57;96506.88;;;25.54;41.77
28927;BME280;16038;47.692;9.400;2023-06-05T11:53:24;96499.19;;;24.16;44.16
28927;BME280;16038;47.692;9.400;2023-06-05T11:55:51;96504.53;;;23.82;44.79
28927;BME280;16038;47.692;9.400;2023-06-05T11:58:27;96494.72;;;24.46;43.09
28927;BME280;16038;47.692;9.400;2023-06-05T12:01:14;96499.28;;;24.03;43.96
28927;BME280;16038;47.692;9.400;2023-06-05T12:03:46;96495.09;;;24.67;42.37
28927;BME280;16038;47.692;9.400;2023-06-05T12:06:12;96495.81;;;24.39;43.21
28927;BME280;16038;47.692;9.400;2023-06-05T12:08:39;96500.63;;;23.26;44.47
28927;BME280;16038;47.692;9.400;2023-06-05T12:11:20;96494.59;;;23.06;46.25
28927;BME280;16038;47.692;9.400;2023-06-05T12:13:55;96493.03;;;23.58;44.95
28927;BME280;16038;47.692;9.400;2023-06-05T12:16:36;96488.91;;;23.41;45.10
28927;BME280;16038;47.692;9.400;2023-06-05T12:19:13;96488.13;;;23.40;45.18
28927;BME280;16038;47.692;9.400;2023-06-05T12:21:39;96485.34;;;22.96;45.96
28927;BME280;16038;47.692;9.400;2023-06-05T12:24:05;96487.28;;;22.86;44.59
28927;BME280;16038;47.692;9.400;2023-06-05T12:26:50;96474.09;;;23.31;44.58
28927;BME280;16038;47.692;9.400;2023-06-05T12:29:19;96464.56;;;24.41;42.24
28927;BME280;16038;47.692;9.400;2023-06-05T12:31:45;96472.41;;;24.83;42.98
28927;BME280;16038;47.692;9.400;2023-06-05T12:34:11;96470.53;;;24.61;43.05
28927;BME280;16038;47.692;9.400;2023-06-05T12:36:40;96461.16;;;25.11;41.28
28927;BME280;16038;47.692;9.400;2023-06-05T12:39:14;96456.09;;;25.52;39.70
28927;BME280;16038;47.692;9.400;2023-06-05T12:41:41;96448.50;;;25.34;40.07
28927;BME280;16038;47.692;9.400;2023-06-05T12:44:07;96458.97;;;24.41;41.58
28927;BME280;16038;47.692;9.400;2023-06-05T12:46:35;96455.53;;;24.28;40.96
28927;BME280;16038;47.692;9.400;2023-06-05T12:49:02;96447.09;;;23.69;42.82
28927;BME280;16038;47.692;9.400;2023-06-05T12:51:28;96448.44;;;23.55;43.55
28927;BME280;16038;47.692;9.400;2023-06-05T12:53:55;96457.16;;;23.88;42.70
28927;BME280;16038;47.692;9.400;2023-06-05T12:56:24;96448.06;;;24.43;41.07
28927;BME280;16038;47.692;9.400;2023-06-05T12:58:57;96449.47;;;24.38;38.54
28927;BME280;16038;47.692;9.400;2023-06-05T13:01:24;96453.25;;;23.85;40.46
28927;BME280;16038;47.692;9.400;2023-06-05T13:03:50;96446.69;;;24.29;40.75
28927;BME280;16038;47.692;9.400;2023-06-05T13:06:15;96446.38;;;24.83;40.01
28927;BME280;16038;47.692;9.400;2023-06-05T13:08:41;96443.13;;;24.47;40.75
28927;BME280;16038;47.692;9.400;2023-06-05T13:11:06;96447.63;;;25.00;40.40
28927;BME280;16038;47.692;9.400;2023-06-05T13:13:32;96439.09;;;24.67;41.08
28927;BME280;16038;47.692;9.400;2023-06-05T13:15:58;96431.63;;;24.54;41.71
28927;BME280;16038;47.692;9.400;2023-06-05T13:18:25;96433.63;;;24.63;41.76
28927;BME280;16038;47.692;9.400;2023-06-05T13:20:51;96440.47;;;24.90;40.40
28927;BME280;16038;47.692;9.400;2023-06-05T13:23:16;96441.97;;;25.18;39.26
28927;BME280;16038;47.692;9.400;2023-06-05T13:25:41;96437.69;;;24.53;39.57
28927;BME280;16038;47.692;9.400;2023-06-05T13:28:07;96430.31;;;23.59;40.61
28927;BME280;16038;47.692;9.400;2023-06-05T13:30:32;96438.47;;;23.44;41.73